createdAt,value
2023-04-02T00:00:00.135Z, 78.4
2023-04-02T00:02:00.151Z, 78.2
2023-04-02T00:04:00.126Z, 78.1
2023-04-02T00:06:00.120Z, 78
2023-04-02T00:08:00.141Z, 77.5
2023-04-02T00:10:00.112Z, 78.2
2023-04-02T00:12:00.111Z, 77.9
2023-04-02T00:14:00.110Z, 79
2023-04-02T00:16:00.145Z, 78.4
2023-04-02T00:18:00.396Z, 77.5
2023-04-02T00:20:00.321Z, 77.5
2023-04-02T00:22:00.163Z, 78.4
2023-04-02T00:24:00.136Z, 81.7
2023-04-02T00:26:00.093Z, 83.2
2023-04-02T00:28:00.069Z, 84.5
2023-04-02T00:30:00.110Z, 85.2
2023-04-02T00:32:00.131Z, 85.8
2023-04-02T00:34:00.088Z, 86.2
2023-04-02T00:36:00.112Z, 85.9
2023-04-02T00:38:00.052Z, 85
2023-04-02T00:40:00.039Z, 85.2
2023-04-02T00:42:00.104Z, 85.7
2023-04-02T00:44:00.061Z, 85.6
2023-04-02T00:46:00.128Z, 84.4
2023-04-02T00:48:00.139Z, 83.2
2023-04-02T00:50:00.113Z, 82.4
2023-04-02T00:52:00.085Z, 81.3
2023-04-02T00:54:00.086Z, 80.4
2023-04-02T00:56:00.111Z, 80
2023-04-02T00:58:00.103Z, 80.5
2023-04-02T01:00:00.150Z, 80.1
2023-04-02T01:02:00.122Z, 80.4
2023-04-02T01:04:00.111Z, 81.8
2023-04-02T01:06:00.116Z, 82.2
2023-04-02T01:08:00.143Z, 81.7
2023-04-02T01:10:00.148Z, 81.1
2023-04-02T01:12:00.141Z, 80.6
2023-04-02T01:14:00.159Z, 81.1
2023-04-02T01:16:00.127Z, 83.2
2023-04-02T01:18:00.204Z, 86.1
2023-04-02T01:20:00.110Z, 87.7
2023-04-02T01:22:00.112Z, 88.6
2023-04-02T01:24:00.137Z, 89.4
2023-04-02T01:26:00.089Z, 91.4
2023-04-02T01:28:00.082Z, 93.5
2023-04-02T01:30:00.105Z, 94.5
2023-04-02T01:32:00.046Z, 93.7
2023-04-02T01:34:00.045Z, 91.7
2023-04-02T01:36:00.117Z, 89
2023-04-02T01:38:00.039Z, 86.4
2023-04-02T01:40:00.036Z, 84
2023-04-02T01:42:00.072Z, 82.3
2023-04-02T01:44:00.077Z, 80.7
2023-04-02T01:46:00.052Z, 79.9
2023-04-02T01:48:00.106Z, 79.1
2023-04-02T01:50:00.044Z, 78.6
2023-04-02T01:52:00.041Z, 78.1
2023-04-02T01:54:00.032Z, 78.2
2023-04-02T01:56:00.107Z, 77.5
2023-04-02T01:58:00.124Z, 78.6
2023-04-02T02:00:00.160Z, 78.1
2023-04-02T02:02:00.175Z, 77.8
2023-04-02T02:04:00.134Z, 77.5
2023-04-02T02:06:00.112Z, 77.7
2023-04-02T02:08:00.119Z, 78.1
2023-04-02T02:10:00.154Z, 78.5
2023-04-02T02:12:00.161Z, 79
2023-04-02T02:14:00.136Z, 79.6
2023-04-02T02:16:00.166Z, 80.3
2023-04-02T02:18:00.178Z, 81.2
2023-04-02T02:20:00.152Z, 82
2023-04-02T02:22:00.112Z, 82.9
2023-04-02T02:24:00.142Z, 83.4
2023-04-02T02:26:00.106Z, 83.3
2023-04-02T02:28:00.087Z, 82.8
2023-04-02T02:30:00.084Z, 82.7
2023-04-02T02:32:00.140Z, 82.6
2023-04-02T02:34:00.057Z, 82.1
2023-04-02T02:36:00.090Z, 81.7
2023-04-02T02:38:00.064Z, 81.6
2023-04-02T02:40:00.056Z, 81.4
2023-04-02T02:42:00.058Z, 81.5
2023-04-02T02:44:00.076Z, 81.3
2023-04-02T02:46:00.180Z, 81.4
2023-04-02T02:48:00.118Z, 80.6
2023-04-02T02:50:00.041Z, 80.2
2023-04-02T02:52:00.026Z, 79.8
2023-04-02T02:54:00.030Z, 79.7
2023-04-02T02:56:00.109Z, 79.8
2023-04-02T02:58:00.124Z, 79.5
2023-04-02T03:00:00.187Z, 79.5
2023-04-02T03:02:00.168Z, 79.4
2023-04-02T03:04:00.256Z, 79.3
2023-04-02T03:06:00.151Z, 79.2
2023-04-02T03:08:00.117Z, 78.9
2023-04-02T03:10:00.144Z, 78.8
2023-04-02T03:12:00.173Z, 78.9
2023-04-02T03:14:00.183Z, 79.1
2023-04-02T03:16:00.194Z, 79.1
2023-04-02T03:18:00.170Z, 79.1
2023-04-02T03:20:00.165Z, 79.3
2023-04-02T03:22:00.126Z, 79.3
2023-04-02T03:24:00.121Z, 79.2
2023-04-02T03:26:00.087Z, 79.7
2023-04-02T03:28:00.058Z, 80.1
2023-04-02T03:30:00.053Z, 80
2023-04-02T03:32:00.043Z, 79.7
2023-04-02T03:34:00.070Z, 80.3
2023-04-02T03:36:00.112Z, 80.7
2023-04-02T03:38:00.035Z, 80.8
2023-04-02T03:40:00.046Z, 80.7
2023-04-02T03:42:00.056Z, 80.2
2023-04-02T03:44:00.034Z, 79.5
2023-04-02T03:46:00.050Z, 79.5
2023-04-02T03:48:00.052Z, 80.1
2023-04-02T03:50:00.059Z, 81.1
2023-04-02T03:52:00.026Z, 82.4
2023-04-02T03:54:00.031Z, 82.8
2023-04-02T03:56:00.108Z, 82.6
2023-04-02T03:58:00.127Z, 82.7
2023-04-02T04:00:00.127Z, 82.8
2023-04-02T04:02:00.163Z, 82.6
2023-04-02T04:04:00.160Z, 82.7
2023-04-02T04:06:00.130Z, 82.8
2023-04-02T04:08:00.103Z, 82.5
2023-04-02T04:10:00.135Z, 82.6
2023-04-02T04:12:00.131Z, 82.3
2023-04-02T04:14:00.119Z, 81.9
2023-04-02T04:16:00.134Z, 81.4
2023-04-02T04:18:00.142Z, 81
2023-04-02T04:20:00.138Z, 80.7
2023-04-02T04:22:00.113Z, 80.4
2023-04-02T04:24:00.126Z, 80.4
2023-04-02T04:26:00.083Z, 80.4
2023-04-02T04:28:00.046Z, 80.2
2023-04-02T04:30:00.079Z, 80.1
2023-04-02T04:32:00.112Z, 80
2023-04-02T04:34:00.072Z, 79.6
2023-04-02T04:36:00.149Z, 79.9
2023-04-02T04:38:00.047Z, 79.8
2023-04-02T04:40:00.054Z, 79.7
2023-04-02T04:42:00.058Z, 79.3
2023-04-02T04:44:00.048Z, 80.4
2023-04-02T04:46:00.127Z, 81.7
2023-04-02T04:48:00.089Z, 82.1
2023-04-02T04:50:00.056Z, 82.5
2023-04-02T04:52:00.030Z, 83
2023-04-02T04:54:00.057Z, 83.1
2023-04-02T04:56:16.089Z, 82.9
2023-04-02T04:58:00.142Z, 82.7
2023-04-02T05:00:00.165Z, 82.9
2023-04-02T05:02:00.143Z, 83.2
2023-04-02T05:04:00.111Z, 83.5
2023-04-02T05:06:00.135Z, 84.3
2023-04-02T05:08:00.218Z, 85.7
2023-04-02T05:10:00.129Z, 87.4
2023-04-02T05:12:00.140Z, 90.5
2023-04-02T05:14:00.108Z, 93.4
2023-04-02T05:16:01.283Z, 95.5
2023-04-02T05:18:00.198Z, 96.5
2023-04-02T05:20:00.123Z, 97.3
2023-04-02T05:22:00.120Z, 98.2
2023-04-02T05:24:00.114Z, 98.7
2023-04-02T05:26:00.122Z, 99.6
2023-04-02T05:28:00.076Z, 100
2023-04-02T05:30:00.090Z, 100
2023-04-02T05:32:00.040Z, 100
2023-04-02T05:34:00.062Z, 100
2023-04-02T05:36:00.139Z, 100
2023-04-02T05:38:00.050Z, 100
2023-04-02T05:40:00.065Z, 100
2023-04-02T05:42:00.049Z, 100
2023-04-02T05:44:00.046Z, 100
2023-04-02T05:46:00.060Z, 100
2023-04-02T05:48:00.171Z, 100
2023-04-02T05:50:00.048Z, 100
2023-04-02T05:52:00.044Z, 100
2023-04-02T05:54:00.049Z, 100
2023-04-02T05:56:00.101Z, 100
2023-04-02T05:58:17.755Z, 100
2023-04-02T06:00:00.162Z, 100
2023-04-02T06:02:00.269Z, 100
2023-04-02T06:04:00.166Z, 100
2023-04-02T06:06:00.118Z, 100
2023-04-02T06:08:00.133Z, 100
2023-04-02T06:10:00.147Z, 100
2023-04-02T06:12:00.125Z, 100
2023-04-02T06:14:01.124Z, 100
2023-04-02T06:16:00.109Z, 100
2023-04-02T06:18:00.149Z, 99.7
2023-04-02T06:20:00.144Z, 99.1
2023-04-02T06:22:00.132Z, 99.4
2023-04-02T06:24:00.143Z, 99.3
2023-04-02T06:26:00.115Z, 99.7
2023-04-02T06:28:00.096Z, 99.7
2023-04-02T06:30:00.126Z, 99.1
2023-04-02T06:32:00.047Z, 98.7
2023-04-02T06:34:00.071Z, 98.1
2023-04-02T06:36:00.144Z, 98.2
2023-04-02T06:38:00.102Z, 98.3
2023-04-02T06:40:00.041Z, 98.4
2023-04-02T06:42:00.072Z, 98.2
2023-04-02T06:44:00.051Z, 98.3
2023-04-02T06:46:00.113Z, 98.7
2023-04-02T06:48:00.130Z, 98.6
2023-04-02T06:50:00.049Z, 99
2023-04-02T06:52:00.038Z, 99.3
2023-04-02T06:54:00.054Z, 99.5
2023-04-02T06:56:00.110Z, 99.6
2023-04-02T06:58:00.129Z, 99.9
2023-04-02T07:00:00.166Z, 99.7
2023-04-02T07:02:00.325Z, 98.7
2023-04-02T07:04:00.107Z, 98.8
2023-04-02T07:06:00.113Z, 98.7
2023-04-02T07:08:00.098Z, 98.6
2023-04-02T07:10:00.134Z, 98.5
2023-04-02T07:12:00.128Z, 98
2023-04-02T07:14:00.123Z, 97.5
2023-04-02T07:16:00.183Z, 96.8
2023-04-02T07:18:00.278Z, 96.8
2023-04-02T07:20:00.114Z, 96.2
2023-04-02T07:22:00.108Z, 96.4
2023-04-02T07:24:00.129Z, 96.7
2023-04-02T07:26:00.109Z, 97.1
2023-04-02T07:28:00.108Z, 97
2023-04-02T07:30:00.093Z, 96.9
2023-04-02T07:32:00.062Z, 96.9
2023-04-02T07:34:00.170Z, 96.5
2023-04-02T07:36:00.143Z, 96.9
2023-04-02T07:38:00.061Z, 97.8
2023-04-02T07:40:00.046Z, 97.4
2023-04-02T07:42:00.071Z, 97.6
2023-04-02T07:44:00.038Z, 97.2
2023-04-02T07:46:00.076Z, 97.2
2023-04-02T07:48:00.144Z, 97.7
2023-04-02T07:50:00.044Z, 97.4
2023-04-02T07:52:00.037Z, 97
2023-04-02T07:54:00.046Z, 96.7
2023-04-02T07:56:00.104Z, 95.5
2023-04-02T07:58:00.163Z, 94.4
2023-04-02T08:00:00.162Z, 94.3
2023-04-02T08:02:00.205Z, 94.6
2023-04-02T08:04:00.178Z, 94.7
2023-04-02T08:06:00.124Z, 95.1
2023-04-02T08:08:00.118Z, 95.5
2023-04-02T08:10:00.115Z, 95.8
2023-04-02T08:12:00.113Z, 96.4
2023-04-02T08:14:00.106Z, 95.9
2023-04-02T08:16:00.118Z, 95.6
2023-04-02T08:18:00.177Z, 95.5
2023-04-02T08:20:00.155Z, 94.6
2023-04-02T08:22:00.115Z, 94.1
2023-04-02T08:24:00.125Z, 93.7
2023-04-02T08:26:00.100Z, 93.8
2023-04-02T08:28:00.100Z, 94.3
2023-04-02T08:30:00.087Z, 95
2023-04-02T08:32:00.058Z, 95.8
2023-04-02T08:34:00.087Z, 96
2023-04-02T08:36:00.148Z, 96.1
2023-04-02T08:38:00.057Z, 95.8
2023-04-02T08:40:00.059Z, 95.7
2023-04-02T08:42:00.051Z, 96.2
2023-04-02T08:44:00.049Z, 95.9
2023-04-02T08:46:00.142Z, 95.2
2023-04-02T08:48:00.237Z, 95.6
2023-04-02T08:50:00.054Z, 96
2023-04-02T08:52:00.049Z, 96
2023-04-02T08:54:00.097Z, 96.2
2023-04-02T08:56:00.149Z, 96.1
2023-04-02T08:58:00.133Z, 96
2023-04-02T09:00:00.153Z, 95.8
2023-04-02T09:02:00.274Z, 95.2
2023-04-02T09:04:00.104Z, 95.4
2023-04-02T09:06:00.114Z, 95.5
2023-04-02T09:08:00.119Z, 95
2023-04-02T09:10:00.128Z, 95.3
2023-04-02T09:12:00.136Z, 95.4
2023-04-02T09:14:00.120Z, 95.5
2023-04-02T09:16:00.142Z, 94.9
2023-04-02T09:18:00.281Z, 94.9
2023-04-02T09:20:00.138Z, 94.7
2023-04-02T09:22:00.111Z, 94.5
2023-04-02T09:24:00.148Z, 95.1
2023-04-02T09:26:04.708Z, 95.1
2023-04-02T09:28:00.057Z, 94.6
2023-04-02T09:30:00.103Z, 94.3
2023-04-02T09:32:00.149Z, 94.1
2023-04-02T09:34:00.079Z, 94.3
2023-04-02T09:36:00.133Z, 94.1
2023-04-02T09:38:00.065Z, 93.7
2023-04-02T09:40:00.074Z, 93
2023-04-02T09:42:05.361Z, 92.1
2023-04-02T09:44:00.092Z, 92.8
2023-04-02T09:46:00.114Z, 92.1
2023-04-02T09:48:00.167Z, 92.8
2023-04-02T09:50:00.122Z, 93.3
2023-04-02T09:52:00.103Z, 93.5
2023-04-02T09:54:00.095Z, 93.7
2023-04-02T09:56:00.115Z, 94.2
2023-04-02T09:58:01.605Z, 94.3
2023-04-02T10:00:00.156Z, 94.6
2023-04-02T10:02:00.096Z, 94.5
2023-04-02T10:04:00.223Z, 93.9
2023-04-02T10:06:00.152Z, 93
2023-04-02T10:08:00.110Z, 92.9
2023-04-02T10:10:00.167Z, 93.8
2023-04-02T10:12:00.126Z, 93
2023-04-02T10:14:00.111Z, 90.8
2023-04-02T10:16:00.260Z, 90.1
2023-04-02T10:18:00.198Z, 90.4
2023-04-02T10:20:00.171Z, 90.4
2023-04-02T10:22:00.105Z, 90.2
2023-04-02T10:24:00.153Z, 90.3
2023-04-02T10:26:00.100Z, 90.1
2023-04-02T10:28:00.102Z, 89.2
2023-04-02T10:30:00.119Z, 89.2
2023-04-02T10:32:00.113Z, 88.8
2023-04-02T10:34:00.062Z, 88.6
2023-04-02T10:36:00.196Z, 88.2
2023-04-02T10:38:00.102Z, 87.8
2023-04-02T10:40:00.098Z, 87.6
2023-04-02T10:42:00.095Z, 88.1
2023-04-02T10:44:12.766Z, 88.7
2023-04-02T10:46:00.099Z, 88.9
2023-04-02T10:48:00.148Z, 88.6
2023-04-02T10:50:00.098Z, 88.4
2023-04-02T10:52:00.063Z, 88.7
2023-04-02T10:54:00.102Z, 88.7
2023-04-02T10:56:00.120Z, 88.5
2023-04-02T10:58:00.136Z, 88.2
2023-04-02T11:00:00.156Z, 88.5
2023-04-02T11:02:00.262Z, 87.7
2023-04-02T11:04:00.198Z, 88.1
2023-04-02T11:06:00.143Z, 88.4
2023-04-02T11:08:00.153Z, 87.8
2023-04-02T11:10:00.213Z, 87.6
2023-04-02T11:12:00.161Z, 86.6
2023-04-02T11:14:00.153Z, 86.4
2023-04-02T11:16:00.206Z, 87.6
2023-04-02T11:18:00.266Z, 88.3
2023-04-02T11:20:00.153Z, 88.6
2023-04-02T11:22:01.822Z, 87.3
2023-04-02T11:24:00.157Z, 86.8
2023-04-02T11:26:00.100Z, 85.6
2023-04-02T11:28:00.118Z, 85.9
2023-04-02T11:30:00.128Z, 86.9
2023-04-02T11:32:00.054Z, 86.8
2023-04-02T11:34:00.062Z, 86
2023-04-02T11:36:00.160Z, 86
2023-04-02T11:38:00.068Z, 85.4
2023-04-02T11:40:00.110Z, 86
2023-04-02T11:42:00.111Z, 85.4
2023-04-02T11:44:00.047Z, 84.3
2023-04-02T11:46:00.046Z, 84.6
2023-04-02T11:48:00.226Z, 84.8
2023-04-02T11:50:00.109Z, 85.1
2023-04-02T11:52:10.830Z, 85.1
2023-04-02T11:54:00.057Z, 85.5
2023-04-02T11:56:00.124Z, 86.1
2023-04-02T11:58:00.105Z, 85.8
2023-04-02T12:00:00.144Z, 85.5
2023-04-02T12:02:00.147Z, 85.6
2023-04-02T12:04:00.115Z, 86.2
2023-04-02T12:06:02.295Z, 86.3
2023-04-02T12:08:00.132Z, 86
2023-04-02T12:10:00.152Z, 84.9
2023-04-02T12:12:00.151Z, 85
2023-04-02T12:14:00.154Z, 85.4
2023-04-02T12:16:00.102Z, 85.8
2023-04-02T12:18:00.256Z, 86.1
2023-04-02T12:20:00.199Z, 85.1
2023-04-02T12:22:00.105Z, 85.7
2023-04-02T12:24:00.135Z, 85.5
2023-04-02T12:26:00.072Z, 85.6
2023-04-02T12:28:00.123Z, 85.2
2023-04-02T12:30:00.132Z, 85.5
2023-04-02T12:32:00.084Z, 86.2
2023-04-02T12:34:00.096Z, 86.3
2023-04-02T12:36:00.187Z, 86
2023-04-02T12:38:00.104Z, 84.9
2023-04-02T12:40:00.126Z, 83.7
2023-04-02T12:42:00.091Z, 83.8
2023-04-02T12:44:00.096Z, 83.5
2023-04-02T12:46:00.107Z, 83.8
2023-04-02T12:48:00.150Z, 83.8
2023-04-02T12:50:00.088Z, 84.2
2023-04-02T12:52:00.070Z, 85
2023-04-02T12:54:00.143Z, 85.3
2023-04-02T12:56:00.134Z, 84.7
2023-04-02T12:58:00.239Z, 84.4
2023-04-02T13:00:00.246Z, 83.2
2023-04-02T13:02:00.157Z, 82.8
2023-04-02T13:04:00.229Z, 82.5
2023-04-02T13:06:00.136Z, 82.6
2023-04-02T13:08:00.131Z, 82.3
2023-04-02T13:10:00.167Z, 81.5
2023-04-02T13:12:00.191Z, 81.3
2023-04-02T13:14:00.122Z, 81.1
2023-04-02T13:16:00.147Z, 80.5
2023-04-02T13:18:00.200Z, 79.9
2023-04-02T13:20:00.152Z, 81.3
2023-04-02T13:22:00.124Z, 81.5
2023-04-02T13:24:00.119Z, 81.4
2023-04-02T13:26:00.112Z, 82.1
2023-04-02T13:28:00.131Z, 81.7
2023-04-02T13:30:00.121Z, 82.2
2023-04-02T13:32:00.147Z, 81.4
2023-04-02T13:34:00.135Z, 81.4
2023-04-02T13:36:00.179Z, 81.2
2023-04-02T13:38:00.132Z, 81.7
2023-04-02T13:40:00.126Z, 81.1
2023-04-02T13:42:00.111Z, 81.1
2023-04-02T13:44:00.100Z, 81.2
2023-04-02T13:46:00.116Z, 81.4
2023-04-02T13:48:00.279Z, 80.7
2023-04-02T13:50:00.134Z, 81.2
2023-04-02T13:52:00.074Z, 80.8
2023-04-02T13:54:00.094Z, 80.4
2023-04-02T13:56:00.114Z, 81.5
2023-04-02T13:58:00.229Z, 81.8
2023-04-02T14:00:00.187Z, 82.3
2023-04-02T14:02:00.147Z, 83.5
2023-04-02T14:04:00.142Z, 83.8
2023-04-02T14:06:00.108Z, 83.6
2023-04-02T14:08:00.132Z, 83.4
2023-04-02T14:10:00.181Z, 82.6
2023-04-02T14:12:00.151Z, 81.9
2023-04-02T14:14:00.111Z, 81.9
2023-04-02T14:16:00.132Z, 82.2
2023-04-02T14:18:00.191Z, 82.1
2023-04-02T14:20:00.156Z, 82.2
2023-04-02T14:22:00.122Z, 81.3
2023-04-02T14:24:00.144Z, 80.9
2023-04-02T14:26:00.101Z, 80.1
2023-04-02T14:28:00.105Z, 79.6
2023-04-02T14:30:00.089Z, 79.8
2023-04-02T14:32:00.056Z, 80.2
2023-04-02T14:34:00.051Z, 80.5
2023-04-02T14:36:00.148Z, 80.9
2023-04-02T14:38:00.042Z, 80.3
2023-04-02T14:40:00.047Z, 80.3
2023-04-02T14:50:00.184Z, 80.3
2023-04-02T14:52:00.744Z, 80.5
2023-04-02T14:54:00.081Z, 80.2
2023-04-02T14:56:00.114Z, 80.3
2023-04-02T14:58:00.136Z, 80.2
2023-04-02T15:00:00.108Z, 80.3
2023-04-02T15:02:00.200Z, 79.8
2023-04-02T15:04:00.161Z, 79.2
2023-04-02T15:06:00.130Z, 79.8
2023-04-02T15:08:00.128Z, 79.5
2023-04-02T15:10:00.186Z, 79.7
2023-04-02T15:12:00.125Z, 79
2023-04-02T15:14:00.146Z, 78.5
2023-04-02T15:16:00.201Z, 78.7
2023-04-02T15:18:00.187Z, 78.8
2023-04-02T15:20:00.166Z, 78.5
2023-04-02T15:22:03.946Z, 78.3
2023-04-02T15:24:00.125Z, 77.6
2023-04-02T15:26:00.131Z, 78
2023-04-02T15:28:00.138Z, 77.7
2023-04-02T15:30:00.156Z, 77.7
2023-04-02T15:32:00.336Z, 77.9
2023-04-02T15:34:00.111Z, 78.1
2023-04-02T15:36:00.196Z, 77.6
2023-04-02T15:38:00.161Z, 78.4
2023-04-02T15:40:00.183Z, 77.9
2023-04-02T15:42:00.139Z, 77.2
2023-04-02T15:44:00.161Z, 76.7
2023-04-02T15:46:00.159Z, 76.5
2023-04-02T15:48:00.170Z, 76.6
2023-04-02T15:50:00.124Z, 76.5
2023-04-02T15:52:00.150Z, 76.3
2023-04-02T15:54:00.135Z, 75.9
2023-04-02T15:56:00.101Z, 76.1
2023-04-02T15:58:00.056Z, 76.3
2023-04-02T16:00:00.140Z, 76.7
2023-04-02T16:02:00.065Z, 76.5
2023-04-02T16:04:00.163Z, 76.2
2023-04-02T16:06:00.138Z, 75.8
2023-04-02T16:08:00.085Z, 74.5
2023-04-02T16:10:00.103Z, 74.1
2023-04-02T16:12:00.103Z, 74.7
2023-04-02T16:14:00.061Z, 74.4
2023-04-02T16:16:00.041Z, 74.5
2023-04-02T16:18:00.169Z, 73.7
2023-04-02T16:20:00.102Z, 74.1
2023-04-02T16:22:00.086Z, 73.7
2023-04-02T16:24:00.068Z, 74.2
2023-04-02T16:26:00.109Z, 74.7
2023-04-02T16:28:00.134Z, 74.5
2023-04-02T16:30:00.115Z, 74.5
2023-04-02T16:32:00.122Z, 73.8
2023-04-02T16:34:00.110Z, 72.9
2023-04-02T16:36:00.210Z, 73.5
2023-04-02T16:38:00.145Z, 73.5
2023-04-02T16:40:00.240Z, 73.8
2023-04-02T16:42:00.124Z, 73.8
2023-04-02T16:44:00.143Z, 73.9
2023-04-02T16:46:00.157Z, 72.5
2023-04-02T16:48:00.181Z, 71.6
2023-04-02T16:50:00.137Z, 71.2
2023-04-02T16:52:00.144Z, 71.9
2023-04-02T16:54:02.163Z, 71.7
2023-04-02T16:56:00.053Z, 72.1
2023-04-02T16:58:00.043Z, 72.9
2023-04-02T17:00:00.162Z, 72.3
2023-04-02T17:02:00.097Z, 72.3
2023-04-02T17:04:00.185Z, 72.2
2023-04-02T17:06:00.103Z, 72.2
2023-04-02T17:08:00.045Z, 72.2
2023-04-02T17:10:00.053Z, 71.8
2023-04-02T17:12:00.050Z, 71.6
2023-04-02T17:14:00.022Z, 71.9
2023-04-02T17:16:00.044Z, 71.2
2023-04-02T17:18:00.076Z, 70.3
2023-04-02T17:20:00.062Z, 70.6
2023-04-02T17:22:00.032Z, 70.6
2023-04-02T17:24:00.056Z, 71
2023-04-02T17:26:00.108Z, 71
2023-04-02T17:28:00.120Z, 71.1
2023-04-02T17:30:00.174Z, 70.9
2023-04-02T17:32:01.623Z, 70.8
2023-04-02T17:34:00.157Z, 70.7
2023-04-02T17:36:00.227Z, 70.3
2023-04-02T17:38:00.123Z, 70.8
2023-04-02T17:40:00.127Z, 70.8
2023-04-02T17:42:00.125Z, 70.6
2023-04-02T17:44:00.163Z, 70.7
2023-04-02T17:46:00.233Z, 70.9
2023-04-02T17:48:00.193Z, 71.2
2023-04-02T17:50:00.197Z, 70.8
2023-04-02T17:52:00.125Z, 70.8
2023-04-02T17:54:00.142Z, 71.6
2023-04-02T17:56:00.084Z, 71.9
2023-04-02T17:58:00.070Z, 71.9
2023-04-02T18:00:00.183Z, 71.8
2023-04-02T18:02:00.102Z, 71
2023-04-02T18:04:00.104Z, 71.1
2023-04-02T18:06:00.125Z, 70.9
2023-04-02T18:08:00.070Z, 70.8
2023-04-02T18:10:00.089Z, 70.6
2023-04-02T18:12:01.558Z, 70.6
2023-04-02T18:14:00.115Z, 70.8
2023-04-02T18:16:00.061Z, 70.4
2023-04-02T18:18:00.125Z, 70.1
2023-04-02T18:20:00.057Z, 70.8
2023-04-02T18:22:00.044Z, 70.7
2023-04-02T18:24:00.049Z, 70.3
2023-04-02T18:26:00.122Z, 69.9
2023-04-02T18:28:00.153Z, 70.2
2023-04-02T18:30:00.160Z, 70
2023-04-02T18:32:00.137Z, 69.9
2023-04-02T18:34:00.145Z, 70.1
2023-04-02T18:36:00.211Z, 69.8
2023-04-02T18:38:00.130Z, 70.4
2023-04-02T18:40:00.188Z, 70.7
2023-04-02T18:42:00.159Z, 71.1
2023-04-02T18:44:00.115Z, 71.1
2023-04-02T18:46:00.160Z, 70.5
2023-04-02T18:48:00.188Z, 70.9
2023-04-02T18:50:00.133Z, 69.8
2023-04-02T18:52:00.117Z, 69.5
2023-04-02T18:54:00.142Z, 69.6
2023-04-02T18:56:00.096Z, 68.9
2023-04-02T18:58:00.048Z, 69.6
2023-04-02T19:00:00.130Z, 69
2023-04-02T19:02:00.046Z, 69.4
2023-04-02T19:04:00.170Z, 70.1
2023-04-02T19:06:00.120Z, 68.8
2023-04-02T19:08:00.049Z, 68.5
2023-04-02T19:10:00.066Z, 69.1
2023-04-02T19:12:00.107Z, 69.2
2023-04-02T19:14:00.045Z, 69.5
2023-04-02T19:16:00.081Z, 69.6
2023-04-02T19:18:00.123Z, 69.8
2023-04-02T19:20:00.063Z, 69.5
2023-04-02T19:22:00.039Z, 69.5
2023-04-02T19:24:00.077Z, 68.9
2023-04-02T19:26:00.110Z, 69.3
2023-04-02T19:28:00.109Z, 69.6
2023-04-02T19:30:00.137Z, 69.8
2023-04-02T19:32:00.229Z, 69.4
2023-04-02T19:34:00.146Z, 69.3
2023-04-02T19:36:00.201Z, 67.8
2023-04-02T19:38:00.118Z, 68
2023-04-02T19:40:00.185Z, 67.9
2023-04-02T19:42:00.130Z, 67
2023-04-02T19:44:00.154Z, 66.9
2023-04-02T19:46:00.123Z, 67.3
2023-04-02T19:48:00.190Z, 68.1
2023-04-02T19:50:00.157Z, 68.1
2023-04-02T19:52:00.116Z, 68
2023-04-02T19:54:00.173Z, 67.7
2023-04-02T19:56:00.094Z, 67.7
2023-04-02T19:58:08.998Z, 67.6
2023-04-02T20:00:00.134Z, 67.7
2023-04-02T20:02:00.060Z, 68
2023-04-02T20:04:00.105Z, 67.8
2023-04-02T20:06:00.178Z, 67.4
2023-04-02T20:08:00.045Z, 67.8
2023-04-02T20:10:00.064Z, 67.9
2023-04-02T20:12:00.057Z, 67.9
2023-04-02T20:14:00.051Z, 67.9
2023-04-02T20:16:00.055Z, 67.1
2023-04-02T20:18:00.122Z, 67.2
2023-04-02T20:20:00.106Z, 68.2
2023-04-02T20:22:00.029Z, 68.4
2023-04-02T20:24:00.054Z, 67.6
2023-04-02T20:26:00.116Z, 67.1
2023-04-02T20:28:00.132Z, 67.5
2023-04-02T20:30:00.138Z, 67.9
2023-04-02T20:32:00.133Z, 68.2
2023-04-02T20:34:00.237Z, 68
2023-04-02T20:36:00.176Z, 68.1
2023-04-02T20:38:00.127Z, 68.1
2023-04-02T20:40:00.209Z, 68
2023-04-02T20:42:00.156Z, 67.8
2023-04-02T20:44:00.119Z, 68
2023-04-02T20:46:00.147Z, 68.2
2023-04-02T20:48:00.194Z, 68.8
2023-04-02T20:50:00.157Z, 69
2023-04-02T20:52:00.125Z, 69.2
2023-04-02T20:54:00.166Z, 69.7
2023-04-02T20:56:00.098Z, 70.5
2023-04-02T20:58:00.116Z, 70.6
2023-04-02T21:00:00.117Z, 71.2
2023-04-02T21:02:00.096Z, 72
2023-04-02T21:04:00.066Z, 72.4
2023-04-02T21:06:00.181Z, 73
2023-04-02T21:08:00.105Z, 73.4
2023-04-02T21:10:00.047Z, 73.5
2023-04-02T21:12:00.099Z, 73.1
2023-04-02T21:14:00.104Z, 73.4
2023-04-02T21:16:00.224Z, 73.3
2023-04-02T21:18:00.183Z, 73.7
2023-04-02T21:20:00.114Z, 73.5
2023-04-02T21:22:00.135Z, 73.9
2023-04-02T21:24:00.122Z, 74.2
2023-04-02T21:26:00.127Z, 74.5
2023-04-02T21:28:00.136Z, 74.2
2023-04-02T21:30:00.161Z, 74.3
2023-04-02T21:32:03.404Z, 73.9
2023-04-02T21:34:00.129Z, 73.9
2023-04-02T21:36:00.164Z, 73.8
2023-04-02T21:38:00.114Z, 74
2023-04-02T21:40:00.180Z, 72.9
2023-04-02T21:42:00.193Z, 72.4
2023-04-02T21:44:00.212Z, 72.8
2023-04-02T21:46:00.141Z, 71.7
2023-04-02T21:48:00.228Z, 71.6
2023-04-02T21:50:00.126Z, 71.4
2023-04-02T21:52:00.131Z, 70.8
2023-04-02T21:54:00.139Z, 71.3
2023-04-02T21:56:00.098Z, 71.4
2023-04-02T21:58:00.107Z, 72.4
2023-04-02T22:00:00.086Z, 72.6
2023-04-02T22:02:00.222Z, 73.6
2023-04-02T22:04:00.210Z, 79.1
2023-04-02T22:06:00.097Z, 81.2
2023-04-02T22:08:00.051Z, 81.1
2023-04-02T22:10:00.047Z, 80
2023-04-02T22:12:00.057Z, 79.3
2023-04-02T22:14:00.115Z, 78.1
2023-04-02T22:16:00.062Z, 77.4
2023-04-02T22:18:00.133Z, 76.7
2023-04-02T22:20:00.062Z, 76.1
2023-04-02T22:22:00.040Z, 75.3
2023-04-02T22:24:00.052Z, 75
2023-04-02T22:26:00.122Z, 74.4
2023-04-02T22:28:00.111Z, 73.4
2023-04-02T22:30:00.208Z, 72.5
2023-04-02T22:32:00.123Z, 72.2
2023-04-02T22:34:00.116Z, 73.2
2023-04-02T22:36:00.330Z, 73.1
2023-04-02T22:38:00.118Z, 73.8
2023-04-02T22:40:00.188Z, 73.7
2023-04-02T22:42:00.151Z, 72.7
2023-04-02T22:44:00.120Z, 72.1
2023-04-02T22:46:00.236Z, 71.6
2023-04-02T22:48:00.223Z, 71.8
2023-04-02T22:50:00.156Z, 72.4
2023-04-02T22:52:00.183Z, 72.5
2023-04-02T22:54:00.126Z, 73.6
2023-04-02T22:56:00.086Z, 76.6
2023-04-02T22:58:00.044Z, 79.8
2023-04-02T23:00:00.105Z, 81.5
2023-04-02T23:02:00.083Z, 81.7
2023-04-02T23:04:00.050Z, 81
2023-04-02T23:06:00.083Z, 80.5
2023-04-02T23:08:00.048Z, 80
2023-04-02T23:10:00.055Z, 79.4
2023-04-02T23:12:00.094Z, 79.3
2023-04-02T23:14:00.069Z, 79.4
2023-04-02T23:16:00.091Z, 78.6
2023-04-02T23:18:00.071Z, 77.8
2023-04-02T23:20:00.036Z, 76.8
2023-04-02T23:22:32.370Z, 76.8
2023-04-02T23:24:00.055Z, 76.3
2023-04-02T23:26:00.153Z, 76.7
2023-04-02T23:28:00.154Z, 76.9
2023-04-02T23:30:00.179Z, 76.2
2023-04-02T23:32:00.133Z, 75.7
2023-04-02T23:34:00.140Z, 76.2
2023-04-02T23:36:00.194Z, 76.3
2023-04-02T23:38:00.121Z, 76.4
2023-04-02T23:40:00.170Z, 76.3
2023-04-02T23:42:00.119Z, 75.7
2023-04-02T23:44:00.142Z, 75.8
2023-04-02T23:46:00.129Z, 75.6
2023-04-02T23:48:00.192Z, 75.5
2023-04-02T23:50:00.159Z, 77.8
2023-04-02T23:52:00.146Z, 79.3
2023-04-02T23:54:00.202Z, 80.3
2023-04-02T23:56:00.053Z, 79.9
2023-04-02T23:58:00.056Z, 79
